Albany, California
Current Conditions -  °F | °C
As of 10:53 PM on Saturday 20 Dec 2014 (Local Time) from KOAK Reporting Station
Overcast Overcast  
Wind Chill: 14°   Ceiling: 1500
Heat Index: 14°   Visibility: 10mi
Dew Point: 12°   Wind: 3mph
Humidity: 87%   Direction: 90°E
Pressure: 30.26"   Gusts: NA
Location:  37.89°N, 122.29°W
Report Text: KOAK 210653Z 09003KT 10SM OVC015 14/12 A3026 RMK AO2 SLP246 T01440122
Loading
Personal Weather Stations






























Interactive Weather Map New forecast layout! Learn more

10-Day Weather Forecast

Advertisements
Track Severe Weather on mobile